Draper, UT

8:24 AM MST on December 05, 2016 (GMT -0700)
Heber | | Change Station

Elev 5636 ft 40.48 °N, 111.43 °W | Updated 9 minutes ago

Overcast
Overcast
28 °F
Feels Like 20 °F
N
9
Wind Variable Wind from ENE
Gusts 16 mph

Today
High -- | Low -- °F
--% Chance of Precip.
Yesterday
High -- | Low -- °F
Precip. -- in
Pressure 29.89 in
Visibility 10.0 miles
Clouds Scattered Clouds 6500 ft
Mostly Cloudy 7500 ft
Overcast 10000 ft
Windchill 20 °F
Dew Point 18 °F
Humidity 64%
Rainfall 0.00 in
Snow Depth Not available.
7:36 AM 5:00 PM
Waxing Crescent, 32% visible
METAR K36U 051515Z AUTO 06008G14KT 10SM SCT065 BKN075 OVC100 M02/M08 A2989 RMK AO2
Pressure 29.89 in
Visibility 10.0 miles
Clouds Scattered Clouds 6500 ft
Mostly Cloudy 7500 ft
Overcast 10000 ft
Windchill 20 °F
Dew Point 18 °F
Humidity 64%
Rainfall 0.00 in
Snow Depth Not available.
7:36 AM 5:00 PM
Waxing Crescent, 32% visible
METAR K36U 051515Z AUTO 06008G14KT 10SM SCT065 BKN075 OVC100 M02/M08 A2989 RMK AO2

10-Day Weather Forecast

Almanac

Astronomy

Dec. 05, 2016 Rise Set
Actual Time
Civil Twilight
Nautical Twilight
Astronomical Twilight
Moon
Length of Visible Light
Length of Day
Tomorrow will be .
, % of the Moon is Illuminated

Today's Extremes

State Highs State Lows

Community

WunderPhotos

Upload Photos

1,955,789 photos uploaded!

WunderBlog® & News

Nearby

Air Quality

  Air Quality AQ Index Pollutant
Not available.

Snow Depth

Station Depth Elevation

Earthquake Activity

City Distance Mag. Time & Date
Minimum magnitude displayed is 2.5.

Coastal Water Temperatures

Place Temperature

Stations

Nearby Weather Stations

Station Location Temp. Windchill Dew Point Humidity Wind Precip. Elev Updated Type
                   

Watches & Warnings

There are currently no watches in effect.